Time;durP1;ratioP1;P1;durP2;ratioP2;P2;SDS_P1;SDS_P2;PMS_P1;PMS_P2;Temp;Humidity;BMP_temperature;BMP_pressure;BME280_temperature;BME280_humidity;BME280_pressure;Samples;Min_cycle;Max_cycle;Signal;HPM_P1;HPM_P2
2023/05/03 00:00:49;;;;;;;3.20;1.30;;;;;;;;;;5024616;28;20283;-60
2023/05/03 00:03:14;;;;;;;2.08;1.05;;;;;;;;;;5041719;28;20893;-57
2023/05/03 00:05:40;;;;;;;2.65;1.50;;;;;;;;;;5025269;28;20052;-62
2023/05/03 00:08:05;;;;;;;2.90;1.00;;;;;;;;;;5028629;28;20119;-61
2023/05/03 00:10:31;;;;;;;1.88;0.85;;;;;;;;;;5041172;28;20424;-61
2023/05/03 00:12:56;;;;;;;1.73;1.00;;;;;;;;;;5025179;28;20520;-63
2023/05/03 00:15:21;;;;;;;1.93;1.20;;;;;;;;;;5033112;28;20291;-60
2023/05/03 00:17:47;;;;;;;3.33;1.10;;;;;;;;;;5024679;28;20377;-60
2023/05/03 00:20:12;;;;;;;2.80;1.20;;;;;;;;;;5024323;28;20051;-62
2023/05/03 00:22:37;;;;;;;1.90;1.10;;;;;;;;;;5024202;28;20306;-63
2023/05/03 00:25:03;;;;;;;2.37;0.80;;;;;;;;;;5024520;28;20071;-61
2023/05/03 00:27:28;;;;;;;2.17;1.15;;;;;;;;;;5036843;28;20850;-64
2023/05/03 00:29:54;;;;;;;2.63;1.10;;;;;;;;;;5047250;28;20040;-59
2023/05/03 00:32:19;;;;;;;2.10;1.00;;;;;;;;;;5023891;28;20039;-61
2023/05/03 00:34:44;;;;;;;2.42;1.00;;;;;;;;;;5041049;28;20048;-64
2023/05/03 00:37:10;;;;;;;1.70;1.00;;;;;;;;;;5049541;28;20385;-60
2023/05/03 00:39:35;;;;;;;2.20;1.10;;;;;;;;;;5048962;28;20361;-62
2023/05/03 00:42:02;;;;;;;1.90;1.30;;;;;;;;;;5042962;28;20040;-60
2023/05/03 00:44:28;;;;;;;1.52;0.90;;;;;;;;;;5058247;28;20478;-62
2023/05/03 00:46:53;;;;;;;2.60;0.98;;;;;;;;;;5042831;28;20060;-61
2023/05/03 00:49:18;;;;;;;1.60;0.95;;;;;;;;;;5025796;28;20024;-65
2023/05/03 00:51:44;;;;;;;2.57;1.30;;;;;;;;;;5025550;28;20032;-64
2023/05/03 00:54:09;;;;;;;1.87;1.00;;;;;;;;;;5025933;28;20807;-64
2023/05/03 00:56:35;;;;;;;2.42;1.20;;;;;;;;;;5026920;28;20295;-60
2023/05/03 00:59:00;;;;;;;1.90;0.90;;;;;;;;;;5029789;28;20056;-63
2023/05/03 01:01:27;;;;;;;1.85;1.10;;;;;;;;;;5024743;28;20807;-60
2023/05/03 01:03:52;;;;;;;2.03;1.00;;;;;;;;;;5026947;28;20124;-63
2023/05/03 01:06:26;;;;;;;1.77;1.00;;;;;;;;;;5042901;28;20119;-59
2023/05/03 01:08:58;;;;;;;1.50;1.00;;;;;;;;;;5050438;28;20399;-62
2023/05/03 01:11:24;;;;;;;2.22;1.25;;;;;;;;;;5065666;28;20044;-62
2023/05/03 01:14:00;;;;;;;2.33;1.27;;;;;;;;;;5064587;28;20424;-62
2023/05/03 01:16:34;;;;;;;1.52;0.80;;;;;;;;;;5046468;28;20044;-64
2023/05/03 01:19:01;;;;;;;1.80;0.77;;;;;;;;;;5080762;28;20028;-63
2023/05/03 01:21:26;;;;;;;3.17;1.23;;;;;;;;;;5084466;28;20101;-62
2023/05/03 01:23:58;;;;;;;1.60;1.00;;;;;;;;;;5083057;28;20040;-61
2023/05/03 01:26:24;;;;;;;1.88;1.20;;;;;;;;;;5080172;28;20075;-63
2023/05/03 01:28:50;;;;;;;1.70;0.77;;;;;;;;;;5058689;28;20036;-60
2023/05/03 01:31:20;;;;;;;2.65;1.10;;;;;;;;;;5074281;28;20525;-64
2023/05/03 01:33:48;;;;;;;1.92;1.10;;;;;;;;;;5067050;28;20108;-63
2023/05/03 01:36:19;;;;;;;2.13;1.05;;;;;;;;;;5047121;28;20032;-63
2023/05/03 01:38:44;;;;;;;2.67;0.98;;;;;;;;;;5047733;28;20103;-60
2023/05/03 01:41:10;;;;;;;1.90;0.80;;;;;;;;;;5046886;28;20579;-59
2023/05/03 01:43:36;;;;;;;1.58;0.93;;;;;;;;;;5051141;28;20085;-61
2023/05/03 01:46:01;;;;;;;1.73;0.90;;;;;;;;;;5051293;28;20062;-63
2023/05/03 01:48:26;;;;;;;2.50;1.05;;;;;;;;;;5098530;28;20028;-63
2023/05/03 01:50:51;;;;;;;2.20;0.93;;;;;;;;;;5067739;28;20031;-62
2023/05/03 01:53:17;;;;;;;1.77;0.80;;;;;;;;;;5049017;28;20280;-64
2023/05/03 01:55:42;;;;;;;2.55;1.00;;;;;;;;;;5046384;28;20338;-63
2023/05/03 01:58:07;;;;;;;2.00;1.10;;;;;;;;;;5046242;28;20055;-62
2023/05/03 02:00:32;;;;;;;1.83;0.90;;;;;;;;;;5049507;28;20329;-64
2023/05/03 02:02:58;;;;;;;1.27;0.60;;;;;;;;;;5064327;28;20020;-62
2023/05/03 02:05:23;;;;;;;1.50;0.90;;;;;;;;;;5047217;28;20091;-62
2023/05/03 02:07:48;;;;;;;2.00;1.10;;;;;;;;;;5077383;28;20036;-63
2023/05/03 02:10:13;;;;;;;1.60;1.00;;;;;;;;;;5043269;28;20270;-64
2023/05/03 02:12:42;;;;;;;2.00;0.87;;;;;;;;;;5049075;28;20036;-61
2023/05/03 02:15:07;;;;;;;1.75;0.95;;;;;;;;;;5042673;28;20714;-63
2023/05/03 02:17:33;;;;;;;2.28;1.10;;;;;;;;;;5052142;28;20416;-61
2023/05/03 02:19:59;;;;;;;1.50;0.80;;;;;;;;;;5072736;28;20016;-64
2023/05/03 02:22:24;;;;;;;1.60;0.90;;;;;;;;;;5046909;28;20015;-63
2023/05/03 02:24:49;;;;;;;1.45;0.90;;;;;;;;;;5046480;28;20084;-60
2023/05/03 02:27:15;;;;;;;1.63;1.00;;;;;;;;;;5067365;28;20681;-60
2023/05/03 02:29:40;;;;;;;1.60;0.70;;;;;;;;;;5053004;28;20297;-61
2023/05/03 02:32:05;;;;;;;1.50;0.90;;;;;;;;;;5056673;28;20067;-61
2023/05/03 02:34:31;;;;;;;1.75;0.90;;;;;;;;;;5048466;28;20540;-61
2023/05/03 02:36:56;;;;;;;1.90;0.90;;;;;;;;;;5063866;28;20023;-63
2023/05/03 02:39:22;;;;;;;2.67;0.90;;;;;;;;;;5064095;28;20016;-62
2023/05/03 02:41:47;;;;;;;1.48;0.90;;;;;;;;;;5061208;28;20278;-61
2023/05/03 02:44:12;;;;;;;1.90;0.97;;;;;;;;;;5081732;28;20019;-63
2023/05/03 02:46:39;;;;;;;1.30;0.80;;;;;;;;;;5063388;28;20337;-62
2023/05/03 02:49:04;;;;;;;1.48;0.80;;;;;;;;;;5082220;28;20599;-62
2023/05/03 02:51:29;;;;;;;1.70;1.10;;;;;;;;;;5064421;28;20028;-61
2023/05/03 02:53:55;;;;;;;1.45;0.80;;;;;;;;;;5043492;28;20033;-60
2023/05/03 02:56:20;;;;;;;1.60;0.90;;;;;;;;;;5028099;28;20453;-63
2023/05/03 02:58:45;;;;;;;1.70;0.90;;;;;;;;;;5077382;28;20081;-63
2023/05/03 03:01:10;;;;;;;1.40;0.90;;;;;;;;;;5082624;28;20262;-62
2023/05/03 03:03:36;;;;;;;1.67;0.80;;;;;;;;;;5067811;28;20329;-60
2023/05/03 03:06:01;;;;;;;1.13;0.90;;;;;;;;;;5081302;28;20654;-62
2023/05/03 03:08:26;;;;;;;1.35;0.98;;;;;;;;;;5048547;28;20114;-64
2023/05/03 03:10:52;;;;;;;1.27;0.77;;;;;;;;;;5063894;28;20766;-59
2023/05/03 03:13:17;;;;;;;1.10;0.70;;;;;;;;;;5062476;28;20278;-59
2023/05/03 03:15:42;;;;;;;1.52;0.90;;;;;;;;;;5045519;28;20411;-63
2023/05/03 03:18:07;;;;;;;1.80;0.80;;;;;;;;;;5060847;28;20485;-65
2023/05/03 03:20:33;;;;;;;1.57;0.73;;;;;;;;;;5046409;28;20380;-60
2023/05/03 03:22:58;;;;;;;2.30;0.87;;;;;;;;;;5060824;28;20273;-64
2023/05/03 03:25:23;;;;;;;1.13;0.80;;;;;;;;;;5060534;28;20255;-62
2023/05/03 03:27:48;;;;;;;1.40;0.90;;;;;;;;;;5059432;28;20271;-63
2023/05/03 03:30:14;;;;;;;1.30;0.80;;;;;;;;;;5043418;28;20612;-64
2023/05/03 03:32:39;;;;;;;1.83;0.80;;;;;;;;;;5054479;28;20440;-62
2023/05/03 03:35:05;;;;;;;1.48;0.77;;;;;;;;;;5072508;28;20530;-62
2023/05/03 03:37:30;;;;;;;2.00;1.08;;;;;;;;;;5051220;28;20503;-61
2023/05/03 03:39:56;;;;;;;1.60;0.97;;;;;;;;;;5045198;28;20069;-61
2023/05/03 03:42:22;;;;;;;1.45;0.85;;;;;;;;;;5049939;28;20791;-63
2023/05/03 03:44:48;;;;;;;1.55;0.90;;;;;;;;;;5064044;28;20028;-60
2023/05/03 03:47:14;;;;;;;1.45;1.00;;;;;;;;;;5059407;28;20032;-63
2023/05/03 03:49:39;;;;;;;1.42;0.90;;;;;;;;;;5063169;28;20130;-61
2023/05/03 03:52:05;;;;;;;2.05;0.80;;;;;;;;;;5078315;28;20048;-59
2023/05/03 03:54:31;;;;;;;1.70;1.00;;;;;;;;;;5081088;28;20109;-62
2023/05/03 03:56:56;;;;;;;2.33;0.90;;;;;;;;;;5079599;28;20733;-62
2023/05/03 03:59:21;;;;;;;1.73;1.13;;;;;;;;;;5051249;28;20025;-63
2023/05/03 04:01:46;;;;;;;1.67;1.10;;;;;;;;;;5061989;28;20277;-61
2023/05/03 04:04:12;;;;;;;2.72;0.90;;;;;;;;;;5060762;28;20692;-60
2023/05/03 04:06:37;;;;;;;1.23;0.80;;;;;;;;;;5043639;28;20571;-63
2023/05/03 04:09:02;;;;;;;2.10;1.00;;;;;;;;;;5058210;28;20028;-63
2023/05/03 04:11:28;;;;;;;2.53;1.17;;;;;;;;;;5062702;28;20678;-59
2023/05/03 04:13:53;;;;;;;1.00;0.70;;;;;;;;;;5061798;28;20048;-62
2023/05/03 04:16:18;;;;;;;1.73;0.73;;;;;;;;;;5046792;28;20055;-63
2023/05/03 04:18:44;;;;;;;1.50;0.90;;;;;;;;;;5061809;28;20285;-61
2023/05/03 04:21:09;;;;;;;1.40;0.80;;;;;;;;;;5063246;28;20031;-62
2023/05/03 04:23:34;;;;;;;1.92;0.93;;;;;;;;;;5046330;28;20504;-64
2023/05/03 04:26:00;;;;;;;1.80;1.10;;;;;;;;;;5059492;28;20735;-62
2023/05/03 04:28:25;;;;;;;2.10;0.90;;;;;;;;;;5060912;28;20298;-61
2023/05/03 04:30:51;;;;;;;1.67;1.00;;;;;;;;;;5061399;28;20278;-60
2023/05/03 04:33:16;;;;;;;2.38;0.80;;;;;;;;;;5063241;28;20043;-63
2023/05/03 04:35:41;;;;;;;1.98;0.90;;;;;;;;;;5039113;28;20067;-62
2023/05/03 04:38:07;;;;;;;2.23;0.80;;;;;;;;;;5060999;28;20032;-62
2023/05/03 04:40:33;;;;;;;1.73;1.20;;;;;;;;;;5030534;28;20286;-64
2023/05/03 04:42:58;;;;;;;1.42;0.80;;;;;;;;;;5048106;28;20040;-66
2023/05/03 04:45:25;;;;;;;1.77;0.82;;;;;;;;;;5032930;28;20036;-61
2023/05/03 04:47:50;;;;;;;1.33;0.80;;;;;;;;;;5037638;28;20154;-62
2023/05/03 04:50:16;;;;;;;1.70;0.90;;;;;;;;;;5031073;28;20213;-63
2023/05/03 04:52:41;;;;;;;1.27;0.93;;;;;;;;;;5052294;28;20346;-65
2023/05/03 04:55:07;;;;;;;1.50;0.95;;;;;;;;;;5025067;28;20508;-61
2023/05/03 04:57:32;;;;;;;1.52;0.90;;;;;;;;;;5045778;28;20831;-62
2023/05/03 04:59:57;;;;;;;1.58;1.05;;;;;;;;;;5051720;28;20078;-63
2023/05/03 05:02:23;;;;;;;1.20;0.80;;;;;;;;;;5048347;28;20870;-63
2023/05/03 05:04:48;;;;;;;2.40;1.00;;;;;;;;;;5029258;28;20369;-65
2023/05/03 05:07:14;;;;;;;1.60;1.00;;;;;;;;;;5026009;28;20043;-67
2023/05/03 05:09:39;;;;;;;1.05;0.80;;;;;;;;;;5037083;28;20044;-64
2023/05/03 05:12:04;;;;;;;1.58;0.93;;;;;;;;;;5024503;28;20083;-63
2023/05/03 05:14:30;;;;;;;1.55;1.02;;;;;;;;;;5051651;28;20892;-62
2023/05/03 05:16:55;;;;;;;1.40;1.00;;;;;;;;;;5029914;28;20033;-63
2023/05/03 05:19:21;;;;;;;1.13;0.73;;;;;;;;;;5027919;28;20048;-64
2023/05/03 05:21:46;;;;;;;1.70;0.93;;;;;;;;;;5028278;28;20125;-63
2023/05/03 05:24:12;;;;;;;1.40;0.90;;;;;;;;;;5052997;28;20043;-61
2023/05/03 05:26:37;;;;;;;1.50;1.00;;;;;;;;;;5033945;28;20491;-62
2023/05/03 05:29:03;;;;;;;1.97;1.13;;;;;;;;;;5033689;28;20059;-64
2023/05/03 05:31:28;;;;;;;1.58;1.10;;;;;;;;;;5048845;28;20293;-60
2023/05/03 05:33:53;;;;;;;2.47;1.27;;;;;;;;;;5062947;28;20036;-61
2023/05/03 05:36:19;;;;;;;2.28;1.40;;;;;;;;;;5037750;28;20362;-66
2023/05/03 05:38:44;;;;;;;1.35;0.80;;;;;;;;;;5038535;28;20161;-65
2023/05/03 05:41:10;;;;;;;3.22;1.25;;;;;;;;;;5036167;28;20282;-62
2023/05/03 05:43:36;;;;;;;2.67;1.17;;;;;;;;;;5051508;28;20162;-65
2023/05/03 05:46:01;;;;;;;3.08;1.20;;;;;;;;;;5034867;28;20040;-62
2023/05/03 05:48:26;;;;;;;2.50;1.30;;;;;;;;;;5069264;28;20073;-70
2023/05/03 05:50:52;;;;;;;3.75;1.40;;;;;;;;;;5032593;28;20857;-59
2023/05/03 05:53:17;;;;;;;2.78;1.27;;;;;;;;;;5036148;28;20050;-61
2023/05/03 05:55:42;;;;;;;5.00;1.40;;;;;;;;;;5033027;28;20079;-61
2023/05/03 05:58:08;;;;;;;3.85;1.10;;;;;;;;;;5033078;28;20885;-71
2023/05/03 06:00:34;;;;;;;3.03;1.05;;;;;;;;;;5033578;28;20100;-69
2023/05/03 06:02:59;;;;;;;2.88;1.23;;;;;;;;;;5042784;28;20724;-64
2023/05/03 06:05:24;;;;;;;2.10;1.17;;;;;;;;;;5042052;28;20055;-66
2023/05/03 06:07:50;;;;;;;2.80;1.30;;;;;;;;;;5039313;28;20182;-63
2023/05/03 06:10:15;;;;;;;2.95;1.20;;;;;;;;;;5030899;28;20060;-63
2023/05/03 06:12:40;;;;;;;2.58;1.02;;;;;;;;;;5039068;28;20059;-68
2023/05/03 06:15:06;;;;;;;2.60;1.20;;;;;;;;;;5030649;28;20385;-62
2023/05/03 06:17:31;;;;;;;3.35;1.23;;;;;;;;;;5056023;28;20139;-65
2023/05/03 06:19:57;;;;;;;2.08;1.08;;;;;;;;;;5039410;28;20040;-68
2023/05/03 06:22:22;;;;;;;1.88;1.17;;;;;;;;;;5028989;28;20382;-66
2023/05/03 06:24:48;;;;;;;2.63;1.35;;;;;;;;;;5034193;28;20051;-68
2023/05/03 06:27:13;;;;;;;2.35;1.40;;;;;;;;;;5050215;28;20043;-67
2023/05/03 06:29:39;;;;;;;2.53;1.27;;;;;;;;;;5039859;28;20600;-70
2023/05/03 06:32:04;;;;;;;3.63;1.10;;;;;;;;;;5039469;28;20729;-66
2023/05/03 06:34:29;;;;;;;2.17;1.30;;;;;;;;;;5038736;28;20059;-64
2023/05/03 06:36:55;;;;;;;2.47;1.25;;;;;;;;;;5033248;28;20036;-63
2023/05/03 06:39:20;;;;;;;1.83;1.00;;;;;;;;;;5038408;28;20058;-65
2023/05/03 06:41:45;;;;;;;1.95;1.10;;;;;;;;;;5033283;28;20531;-66
2023/05/03 06:44:11;;;;;;;2.03;1.20;;;;;;;;;;5040682;28;20066;-60
2023/05/03 06:46:36;;;;;;;3.75;1.30;;;;;;;;;;5034718;28;20040;-66
2023/05/03 06:49:02;;;;;;;2.00;1.40;;;;;;;;;;5031867;28;20028;-70
2023/05/03 06:51:29;;;;;;;2.72;1.30;;;;;;;;;;5050746;28;20071;-65
2023/05/03 06:53:59;;;;;;;1.55;1.00;;;;;;;;;;5049916;28;20037;-68
2023/05/03 06:56:24;;;;;;;2.13;1.20;;;;;;;;;;5050099;28;20036;-64
2023/05/03 06:58:49;;;;;;;2.20;1.00;;;;;;;;;;5040605;28;20050;-65
2023/05/03 07:01:16;;;;;;;2.65;1.23;;;;;;;;;;5036436;28;20047;-61
2023/05/03 07:03:41;;;;;;;2.47;1.10;;;;;;;;;;5039013;28;20533;-66
2023/05/03 07:06:07;;;;;;;3.00;1.30;;;;;;;;;;5054000;28;20048;-67
2023/05/03 07:08:32;;;;;;;3.03;1.20;;;;;;;;;;5032704;28;20317;-62
2023/05/03 07:10:57;;;;;;;2.60;1.10;;;;;;;;;;5039574;28;20082;-63
2023/05/03 07:13:22;;;;;;;2.20;1.20;;;;;;;;;;5039170;28;20306;-62
2023/05/03 07:15:48;;;;;;;2.57;1.27;;;;;;;;;;5037398;28;20509;-65
2023/05/03 07:18:13;;;;;;;2.03;1.05;;;;;;;;;;5037923;28;20420;-64
2023/05/03 07:20:38;;;;;;;3.07;1.10;;;;;;;;;;5037454;28;20528;-65
2023/05/03 07:23:05;;;;;;;2.15;1.38;;;;;;;;;;5047328;28;20344;-66
2023/05/03 07:25:30;;;;;;;2.22;1.05;;;;;;;;;;5066503;28;20658;-58
2023/05/03 07:27:56;;;;;;;2.85;1.25;;;;;;;;;;5046486;28;20036;-62
2023/05/03 07:30:21;;;;;;;2.30;1.10;;;;;;;;;;5038595;28;20107;-59
2023/05/03 07:32:46;;;;;;;2.80;1.33;;;;;;;;;;5033222;28;20063;-63
2023/05/03 07:35:12;;;;;;;1.88;1.30;;;;;;;;;;5029467;28;20070;-65
2023/05/03 07:37:37;;;;;;;2.10;1.20;;;;;;;;;;5029859;28;20039;-62
2023/05/03 07:40:05;;;;;;;1.85;1.10;;;;;;;;;;5069433;28;20548;-65
2023/05/03 07:42:30;;;;;;;2.30;1.25;;;;;;;;;;5030400;28;20044;-58
2023/05/03 07:44:56;;;;;;;2.20;1.30;;;;;;;;;;5036798;28;20032;-63
2023/05/03 07:47:21;;;;;;;2.53;1.08;;;;;;;;;;5053487;28;20046;-67
2023/05/03 07:49:49;;;;;;;2.30;1.30;;;;;;;;;;5030187;28;20101;-61
2023/05/03 07:52:14;;;;;;;1.90;1.20;;;;;;;;;;5054173;28;20033;-68
2023/05/03 07:54:41;;;;;;;3.17;1.13;;;;;;;;;;5028021;28;20070;-61
2023/05/03 07:57:07;;;;;;;2.30;1.30;;;;;;;;;;5054216;28;20814;-63
2023/05/03 07:59:32;;;;;;;2.38;1.25;;;;;;;;;;5037991;28;20040;-65
2023/05/03 08:01:57;;;;;;;2.28;1.30;;;;;;;;;;5048538;28;20032;-67
2023/05/03 08:04:23;;;;;;;1.58;1.02;;;;;;;;;;5028237;28;20032;-63
2023/05/03 08:06:48;;;;;;;2.35;1.30;;;;;;;;;;5028383;28;20048;-61
2023/05/03 08:09:14;;;;;;;1.93;1.10;;;;;;;;;;5041952;28;20101;-66
2023/05/03 08:11:39;;;;;;;2.85;1.35;;;;;;;;;;5055717;28;20474;-64
2023/05/03 08:14:05;;;;;;;2.00;1.33;;;;;;;;;;5024871;28;20490;-63
2023/05/03 08:16:30;;;;;;;2.10;1.23;;;;;;;;;;5040181;28;20491;-58
2023/05/03 08:18:55;;;;;;;1.77;1.10;;;;;;;;;;5042022;28;20122;-62
2023/05/03 08:21:23;;;;;;;2.88;1.10;;;;;;;;;;5039009;28;20488;-64
2023/05/03 08:23:49;;;;;;;2.80;1.25;;;;;;;;;;5041811;28;20039;-63
2023/05/03 08:26:15;;;;;;;4.53;1.50;;;;;;;;;;5040980;28;20032;-65
2023/05/03 08:28:40;;;;;;;3.22;1.30;;;;;;;;;;5042986;28;20112;-59
2023/05/03 08:31:06;;;;;;;2.60;1.30;;;;;;;;;;5021758;28;20102;-67
2023/05/03 08:33:31;;;;;;;2.67;1.20;;;;;;;;;;5042612;28;20047;-68
2023/05/03 08:35:57;;;;;;;3.17;1.27;;;;;;;;;;5024706;28;20052;-66
2023/05/03 08:38:22;;;;;;;1.73;1.07;;;;;;;;;;5038193;28;20132;-62
2023/05/03 08:40:47;;;;;;;2.58;1.33;;;;;;;;;;5012972;28;20295;-66
2023/05/03 08:43:13;;;;;;;2.08;1.13;;;;;;;;;;5006123;28;20425;-68
2023/05/03 08:45:38;;;;;;;1.80;1.00;;;;;;;;;;5041509;28;20235;-66
2023/05/03 08:48:05;;;;;;;2.28;1.35;;;;;;;;;;5033028;28;20195;-64
2023/05/03 08:50:30;;;;;;;3.78;1.50;;;;;;;;;;5043919;28;20063;-66
2023/05/03 08:52:56;;;;;;;2.78;1.23;;;;;;;;;;5037780;28;20509;-64
2023/05/03 08:55:21;;;;;;;2.80;1.33;;;;;;;;;;5034925;28;20639;-65
2023/05/03 08:57:46;;;;;;;2.33;1.20;;;;;;;;;;5047051;28;20041;-66
2023/05/03 09:00:13;;;;;;;2.55;1.20;;;;;;;;;;5028006;28;20110;-67
2023/05/03 09:02:38;;;;;;;3.00;1.17;;;;;;;;;;5040795;28;20028;-64
2023/05/03 09:05:05;;;;;;;3.97;1.10;;;;;;;;;;5026742;28;20564;-62
2023/05/03 09:07:31;;;;;;;2.20;1.27;;;;;;;;;;5017819;28;20416;-63
2023/05/03 09:09:57;;;;;;;4.28;1.15;;;;;;;;;;5008193;28;20153;-61
2023/05/03 09:12:35;;;;;;;2.03;1.20;;;;;;;;;;5016144;28;20331;-67
2023/05/03 09:15:02;;;;;;;2.08;1.10;;;;;;;;;;5009788;28;20060;-66
2023/05/03 09:17:27;;;;;;;2.20;1.27;;;;;;;;;;5030187;28;20131;-62
2023/05/03 09:19:53;;;;;;;3.00;1.23;;;;;;;;;;5019619;28;20760;-65
2023/05/03 09:22:19;;;;;;;2.72;1.40;;;;;;;;;;5021205;28;22099;-63
2023/05/03 09:24:53;;;;;;;2.03;1.38;;;;;;;;;;5014567;28;20097;-64
2023/05/03 09:27:20;;;;;;;2.13;1.13;;;;;;;;;;5020962;28;20051;-61
2023/05/03 09:29:45;;;;;;;2.10;1.25;;;;;;;;;;5022137;28;20048;-60
2023/05/03 09:32:11;;;;;;;2.50;1.30;;;;;;;;;;5034649;28;20054;-67
2023/05/03 09:34:37;;;;;;;2.95;1.40;;;;;;;;;;5022236;28;20173;-63
2023/05/03 09:37:02;;;;;;;3.08;1.35;;;;;;;;;;5021678;28;20033;-66
2023/05/03 09:39:28;;;;;;;3.65;1.38;;;;;;;;;;5032549;28;20734;-62
2023/05/03 09:41:53;;;;;;;2.15;1.10;;;;;;;;;;5016290;28;20059;-65
2023/05/03 09:44:18;;;;;;;1.73;1.03;;;;;;;;;;5021689;28;20051;-66
2023/05/03 09:47:02;;;;;;;2.00;1.13;;;;;;;;;;5016137;28;20751;-66
2023/05/03 09:49:29;;;;;;;2.45;1.15;;;;;;;;;;5050126;28;20216;-63
2023/05/03 09:51:54;;;;;;;1.98;1.40;;;;;;;;;;5051167;28;20025;-66
2023/05/03 09:54:20;;;;;;;1.95;1.20;;;;;;;;;;5021964;28;20508;-66
2023/05/03 09:56:46;;;;;;;1.70;1.10;;;;;;;;;;5032204;28;20094;-60
2023/05/03 09:59:11;;;;;;;2.15;1.30;;;;;;;;;;5021330;28;20477;-65
2023/05/03 10:01:36;;;;;;;2.57;1.20;;;;;;;;;;5051383;28;20044;-69
2023/05/03 10:04:01;;;;;;;1.98;1.10;;;;;;;;;;5050923;28;20269;-69
2023/05/03 10:06:30;;;;;;;2.33;1.00;;;;;;;;;;5033226;28;20905;-67
2023/05/03 10:08:59;;;;;;;2.03;1.20;;;;;;;;;;5050930;28;20347;-63
2023/05/03 10:11:26;;;;;;;1.60;1.20;;;;;;;;;;5035705;28;20031;-66
2023/05/03 10:13:51;;;;;;;2.38;1.17;;;;;;;;;;5069325;28;20271;-65
2023/05/03 10:16:19;;;;;;;1.98;1.40;;;;;;;;;;5035279;28;20043;-62
2023/05/03 10:18:48;;;;;;;2.35;1.42;;;;;;;;;;5041183;28;20020;-68
2023/05/03 10:21:13;;;;;;;2.67;1.13;;;;;;;;;;5070001;28;20186;-66
2023/05/03 10:24:07;;;;;;;2.60;1.20;;;;;;;;;;5041635;28;20440;-65
2023/05/03 10:26:33;;;;;;;1.88;1.20;;;;;;;;;;5045810;28;20111;-64
2023/05/03 10:28:58;;;;;;;1.90;1.10;;;;;;;;;;5046683;28;20124;-68
2023/05/03 10:31:43;;;;;;;2.15;1.10;;;;;;;;;;5043878;28;20289;-66
2023/05/03 10:34:18;;;;;;;2.58;1.20;;;;;;;;;;5027922;28;20040;-71
2023/05/03 10:36:45;;;;;;;1.98;1.27;;;;;;;;;;5027890;28;20615;-67
2023/05/03 10:39:12;;;;;;;2.50;1.00;;;;;;;;;;5044344;28;20504;-65
2023/05/03 10:41:38;;;;;;;2.10;1.40;;;;;;;;;;5027740;28;20032;-66
2023/05/03 10:44:03;;;;;;;2.10;1.10;;;;;;;;;;5027334;28;20039;-58
2023/05/03 10:46:30;;;;;;;1.67;1.10;;;;;;;;;;5027630;28;20059;-67
2023/05/03 10:49:14;;;;;;;1.60;1.10;;;;;;;;;;5027909;28;20862;-60
2023/05/03 10:51:41;;;;;;;2.03;1.25;;;;;;;;;;5027301;28;20085;-67
2023/05/03 10:54:07;;;;;;;1.95;1.00;;;;;;;;;;5039489;28;20074;-66
2023/05/03 10:56:33;;;;;;;2.53;1.20;;;;;;;;;;5057722;28;20056;-65
2023/05/03 10:58:58;;;;;;;2.35;0.90;;;;;;;;;;5045524;28;20036;-66
2023/05/03 11:01:23;;;;;;;1.87;1.17;;;;;;;;;;5063172;28;20040;-62
2023/05/03 11:04:01;;;;;;;2.53;1.00;;;;;;;;;;5059488;28;20290;-60
2023/05/03 11:06:30;;;;;;;4.55;1.63;;;;;;;;;;5059885;28;20144;-67
2023/05/03 11:08:56;;;;;;;4.15;1.80;;;;;;;;;;5078782;28;20040;-69
2023/05/03 11:11:21;;;;;;;3.22;1.75;;;;;;;;;;5044702;28;20040;-67
2023/05/03 11:13:46;;;;;;;3.80;2.30;;;;;;;;;;5044910;28;20051;-69
2023/05/03 11:16:11;;;;;;;4.45;1.90;;;;;;;;;;5046377;28;20294;-71
2023/05/03 11:18:37;;;;;;;3.40;2.10;;;;;;;;;;5053968;23;20144;-67
2023/05/03 11:21:02;;;;;;;4.43;2.17;;;;;;;;;;5026408;28;20110;-60
2023/05/03 11:23:27;;;;;;;2.17;1.70;;;;;;;;;;5043776;28;20131;-65
2023/05/03 11:25:53;;;;;;;4.78;1.73;;;;;;;;;;5046913;28;20089;-63
2023/05/03 11:28:18;;;;;;;3.40;1.88;;;;;;;;;;5046738;28;20441;-69
2023/05/03 11:30:44;;;;;;;3.83;1.90;;;;;;;;;;5042639;28;20138;-66
2023/05/03 11:33:09;;;;;;;6.05;2.20;;;;;;;;;;5028523;28;20228;-61
2023/05/03 11:35:34;;;;;;;3.67;1.90;;;;;;;;;;5029562;28;20517;-68
2023/05/03 11:38:00;;;;;;;2.78;1.90;;;;;;;;;;5028415;28;20516;-62
2023/05/03 11:40:26;;;;;;;5.85;2.17;;;;;;;;;;5063335;28;20078;-66
2023/05/03 11:42:55;;;;;;;4.72;2.08;;;;;;;;;;5028687;28;20035;-67
2023/05/03 11:45:21;;;;;;;2.93;2.10;;;;;;;;;;5045701;28;20049;-69
2023/05/03 11:47:46;;;;;;;3.65;2.20;;;;;;;;;;5045504;28;20883;-65
2023/05/03 11:50:12;;;;;;;4.57;2.30;;;;;;;;;;5028288;28;20115;-66
2023/05/03 11:52:37;;;;;;;3.72;2.03;;;;;;;;;;5060529;28;20543;-67
2023/05/03 11:55:03;;;;;;;3.20;2.10;;;;;;;;;;5029007;28;20473;-63
2023/05/03 11:57:30;;;;;;;3.55;2.00;;;;;;;;;;5029217;28;20318;-66
2023/05/03 11:59:55;;;;;;;4.63;2.38;;;;;;;;;;5045421;28;20044;-62
2023/05/03 12:02:21;;;;;;;7.73;2.17;;;;;;;;;;5061202;28;20094;-67
2023/05/03 12:04:46;;;;;;;3.47;2.03;;;;;;;;;;5037258;28;20280;-62
2023/05/03 12:07:12;;;;;;;3.42;2.10;;;;;;;;;;5041260;28;20472;-67
2023/05/03 12:09:38;;;;;;;4.40;2.53;;;;;;;;;;5040305;28;20013;-65
2023/05/03 12:12:04;;;;;;;3.20;2.30;;;;;;;;;;5032196;28;20025;-66
2023/05/03 12:14:49;;;;;;;5.15;1.90;;;;;;;;;;5040975;28;20025;-67
2023/05/03 12:17:18;;;;;;;3.13;2.15;;;;;;;;;;5044947;28;20032;-66
2023/05/03 12:19:44;;;;;;;3.65;1.95;;;;;;;;;;5043429;28;20060;-67
2023/05/03 12:22:18;;;;;;;3.60;2.27;;;;;;;;;;5029191;28;20063;-63
2023/05/03 12:24:43;;;;;;;3.95;2.20;;;;;;;;;;5028939;28;20266;-67
2023/05/03 12:27:08;;;;;;;4.18;2.00;;;;;;;;;;5028497;28;20094;-64
2023/05/03 12:29:34;;;;;;;4.80;2.10;;;;;;;;;;5027395;28;20029;-66
2023/05/03 12:32:01;;;;;;;3.53;2.07;;;;;;;;;;5058184;28;20823;-63
2023/05/03 12:34:27;;;;;;;3.30;2.15;;;;;;;;;;5026815;28;20306;-66
2023/05/03 12:36:52;;;;;;;4.97;2.30;;;;;;;;;;5025503;28;20044;-69
2023/05/03 12:39:17;;;;;;;3.80;2.33;;;;;;;;;;5044098;28;20290;-60
2023/05/03 12:41:42;;;;;;;3.43;2.37;;;;;;;;;;5025736;28;20049;-62
2023/05/03 12:44:08;;;;;;;2.60;1.87;;;;;;;;;;5061251;28;20274;-63
2023/05/03 12:46:33;;;;;;;5.55;2.63;;;;;;;;;;5044876;28;20362;-66
2023/05/03 12:48:58;;;;;;;3.63;2.10;;;;;;;;;;5077501;28;20048;-64
2023/05/03 12:51:26;;;;;;;4.07;2.20;;;;;;;;;;5060695;28;20041;-69
2023/05/03 12:53:51;;;;;;;3.15;1.98;;;;;;;;;;5060807;28;20028;-62
2023/05/03 12:56:17;;;;;;;3.42;2.20;;;;;;;;;;5044896;28;20105;-66
2023/05/03 12:58:43;;;;;;;3.35;2.15;;;;;;;;;;5062645;28;20036;-66
2023/05/03 13:01:08;;;;;;;3.85;2.50;;;;;;;;;;5078319;28;20052;-62
2023/05/03 13:03:34;;;;;;;4.53;2.10;;;;;;;;;;5061041;28;20048;-64
2023/05/03 13:05:59;;;;;;;4.45;2.45;;;;;;;;;;5061430;28;20271;-66
2023/05/03 13:08:25;;;;;;;3.55;2.10;;;;;;;;;;5077090;28;20048;-65
2023/05/03 13:10:51;;;;;;;3.30;2.35;;;;;;;;;;5044779;28;20033;-65
2023/05/03 13:13:17;;;;;;;3.00;2.05;;;;;;;;;;5044986;28;20036;-66
2023/05/03 13:15:42;;;;;;;3.53;2.22;;;;;;;;;;5044990;28;20483;-67
2023/05/03 13:18:07;;;;;;;3.25;2.45;;;;;;;;;;5028178;28;20067;-67
2023/05/03 13:20:34;;;;;;;4.30;2.42;;;;;;;;;;5028013;28;20041;-63
2023/05/03 13:22:59;;;;;;;3.58;2.85;;;;;;;;;;5042751;28;20045;-65
2023/05/03 13:25:25;;;;;;;3.97;2.58;;;;;;;;;;5058983;28;20500;-66
2023/05/03 13:27:52;;;;;;;4.88;2.63;;;;;;;;;;5043993;28;20045;-62
2023/05/03 13:30:17;;;;;;;4.85;2.40;;;;;;;;;;5044096;28;20397;-66
2023/05/03 13:32:43;;;;;;;5.43;2.72;;;;;;;;;;5044154;28;20089;-63
2023/05/03 13:35:08;;;;;;;5.40;2.33;;;;;;;;;;5062685;28;20041;-65
2023/05/03 13:37:34;;;;;;;3.47;2.47;;;;;;;;;;5027928;28;20682;-65
2023/05/03 13:39:59;;;;;;;4.57;2.38;;;;;;;;;;5045084;28;20551;-66
2023/05/03 13:42:24;;;;;;;5.43;2.70;;;;;;;;;;5044144;28;20270;-66
2023/05/03 13:44:50;;;;;;;4.22;2.70;;;;;;;;;;5043632;28;20032;-67
2023/05/03 13:47:15;;;;;;;4.18;2.42;;;;;;;;;;5062404;28;20040;-62
2023/05/03 13:49:40;;;;;;;7.03;3.13;;;;;;;;;;5044555;28;20492;-59
2023/05/03 13:52:05;;;;;;;4.97;2.50;;;;;;;;;;5043679;28;20287;-64
2023/05/03 13:54:31;;;;;;;4.07;2.50;;;;;;;;;;5027254;28;20397;-64
2023/05/03 13:56:57;;;;;;;3.53;2.37;;;;;;;;;;5025439;28;20298;-63
2023/05/03 13:59:23;;;;;;;3.65;2.47;;;;;;;;;;5042738;28;20294;-63
2023/05/03 14:01:48;;;;;;;4.53;2.90;;;;;;;;;;5024214;28;20029;-65
2023/05/03 14:04:13;;;;;;;5.28;2.70;;;;;;;;;;5026549;28;20509;-61
2023/05/03 14:06:39;;;;;;;4.40;2.40;;;;;;;;;;5038608;28;20508;-64
2023/05/03 14:09:05;;;;;;;4.38;2.50;;;;;;;;;;5046631;28;20698;-65
2023/05/03 14:11:30;;;;;;;4.78;2.50;;;;;;;;;;5047326;28;20112;-60
2023/05/03 14:13:55;;;;;;;3.85;2.42;;;;;;;;;;5047432;28;20135;-62
2023/05/03 14:16:21;;;;;;;5.00;2.30;;;;;;;;;;5030632;28;20041;-65
2023/05/03 14:18:47;;;;;;;5.28;2.53;;;;;;;;;;5047185;28;20286;-62
2023/05/03 14:21:12;;;;;;;4.10;2.00;;;;;;;;;;5047418;28;20536;-63
2023/05/03 14:23:39;;;;;;;4.43;2.58;;;;;;;;;;5046629;28;20037;-62
2023/05/03 14:26:05;;;;;;;4.38;2.20;;;;;;;;;;5064885;28;20578;-62
2023/05/03 14:28:30;;;;;;;4.95;2.25;;;;;;;;;;5030507;28;20485;-60
2023/05/03 14:30:56;;;;;;;3.65;2.13;;;;;;;;;;5043457;28;20029;-63
2023/05/03 14:33:21;;;;;;;3.47;2.42;;;;;;;;;;5027076;28;20539;-64
2023/05/03 14:35:46;;;;;;;3.97;2.50;;;;;;;;;;5011036;28;20095;-63